Time;durP1;ratioP1;P1;durP2;ratioP2;P2;SDS_P1;SDS_P2;PMS_P1;PMS_P2;Temp;Humidity;BMP_temperature;BMP_pressure;BME280_temperature;BME280_humidity;BME280_pressure;Samples;Min_cycle;Max_cycle;Signal;HPM_P1;HPM_P2
2023/05/30 00:01:23;;;;;;;4.80;1.67;;;12.40;76.80;;;;;;5019621;28;20120;-64
2023/05/30 00:03:50;;;;;;;4.28;1.27;;;12.40;76.60;;;;;;5016888;28;20041;-63
2023/05/30 00:06:16;;;;;;;4.22;1.23;;;12.40;76.60;;;;;;5021741;28;20425;-64
2023/05/30 00:08:43;;;;;;;4.53;1.27;;;12.30;76.60;;;;;;5020889;28;20392;-63
2023/05/30 00:11:13;;;;;;;5.60;1.50;;;12.30;76.60;;;;;;5016497;28;20111;-64
2023/05/30 00:13:42;;;;;;;3.95;1.58;;;12.30;76.70;;;;;;5017370;28;20061;-64
2023/05/30 00:16:09;;;;;;;6.72;1.80;;;12.30;76.80;;;;;;5016622;28;20124;-64
2023/05/30 00:18:34;;;;;;;3.55;1.40;;;12.30;77.20;;;;;;5010593;28;20029;-63
2023/05/30 00:21:03;;;;;;;4.82;1.42;;;12.20;77.20;;;;;;5020187;28;20052;-64
2023/05/30 00:23:30;;;;;;;7.30;1.70;;;12.20;77.40;;;;;;5018649;28;20067;-63
2023/05/30 00:25:59;;;;;;;3.20;1.55;;;12.20;77.50;;;;;;5016509;28;20025;-64
2023/05/30 00:28:25;;;;;;;5.43;1.25;;;12.20;77.50;;;;;;5014261;28;20086;-64
2023/05/30 00:30:52;;;;;;;3.30;1.60;;;12.10;77.60;;;;;;5006144;28;20485;-64
2023/05/30 00:33:20;;;;;;;7.03;1.65;;;12.10;77.80;;;;;;5020056;28;20490;-63
2023/05/30 00:35:48;;;;;;;2.85;1.40;;;12.00;78.00;;;;;;5019101;28;20108;-64
2023/05/30 00:38:14;;;;;;;6.13;1.60;;;12.00;78.30;;;;;;5014962;28;20099;-64
2023/05/30 00:40:40;;;;;;;4.13;1.30;;;12.00;78.40;;;;;;4998360;28;20025;-64
2023/05/30 00:43:05;;;;;;;3.33;1.38;;;12.00;78.60;;;;;;5001514;28;20033;-65
2023/05/30 00:45:31;;;;;;;6.13;1.77;;;11.90;79.00;;;;;;5021462;28;20052;-64
2023/05/30 00:47:58;;;;;;;4.03;0.88;;;11.90;78.90;;;;;;5018829;28;20041;-64
2023/05/30 00:50:26;;;;;;;4.03;1.50;;;11.90;79.10;;;;;;5019667;28;20036;-64
2023/05/30 00:52:53;;;;;;;2.42;1.25;;;11.80;79.20;;;;;;5018753;28;20111;-64
2023/05/30 00:55:20;;;;;;;5.88;1.63;;;11.80;79.20;;;;;;5021362;28;20109;-65
2023/05/30 00:57:46;;;;;;;2.92;1.23;;;11.80;79.40;;;;;;5022195;28;20025;-64
2023/05/30 01:00:14;;;;;;;5.85;1.50;;;11.70;79.40;;;;;;5018304;28;20452;-65
2023/05/30 01:02:43;;;;;;;4.75;1.42;;;11.70;80.20;;;;;;5018201;28;20061;-64
2023/05/30 01:05:09;;;;;;;4.50;1.38;;;11.70;79.50;;;;;;4995927;28;20037;-64
2023/05/30 01:07:35;;;;;;;3.55;1.67;;;11.60;79.60;;;;;;5014908;28;20485;-64
2023/05/30 01:10:01;;;;;;;4.93;1.45;;;11.60;79.90;;;;;;4999991;28;20481;-64
2023/05/30 01:12:52;;;;;;;4.40;1.42;;;11.60;80.00;;;;;;5000255;28;20538;-64
2023/05/30 01:15:27;;;;;;;4.38;1.35;;;11.50;80.10;;;;;;5000954;28;20084;-64
2023/05/30 01:18:11;;;;;;;3.83;1.10;;;11.50;80.30;;;;;;5013962;28;20822;-63
2023/05/30 01:20:46;;;;;;;5.97;1.50;;;11.50;80.80;;;;;;5000693;28;20065;-64
2023/05/30 01:23:23;;;;;;;5.22;1.55;;;11.40;81.10;;;;;;5001717;28;20088;-65
2023/05/30 01:26:07;;;;;;;4.63;1.45;;;11.40;81.30;;;;;;5018487;28;20022;-65
2023/05/30 01:28:36;;;;;;;5.97;1.42;;;11.30;81.50;;;;;;4997543;28;20140;-65
2023/05/30 01:31:03;;;;;;;3.00;1.20;;;11.30;81.80;;;;;;4997707;28;20026;-65
2023/05/30 01:33:31;;;;;;;5.13;1.50;;;11.30;81.90;;;;;;5018085;28;20034;-66
2023/05/30 01:35:57;;;;;;;6.10;1.27;;;11.30;82.10;;;;;;5020780;28;20032;-65
2023/05/30 01:38:23;;;;;;;3.03;1.40;;;11.20;82.10;;;;;;5017069;28;20060;-65
2023/05/30 01:40:51;;;;;;;3.88;1.50;;;11.20;82.10;;;;;;5000393;28;20132;-65
2023/05/30 01:43:50;;;;;;;6.97;1.63;;;11.20;82.50;;;;;;4995642;28;20034;-65
2023/05/30 01:46:32;;;;;;;6.05;1.65;;;11.10;82.80;;;;;;5002007;28;20067;-66
2023/05/30 01:49:10;;;;;;;11.95;1.70;;;11.10;83.10;;;;;;5019156;28;20033;-65
2023/05/30 01:51:57;;;;;;;14.77;1.80;;;11.10;83.30;;;;;;5014655;28;20707;-65
2023/05/30 01:54:24;;;;;;;7.95;1.85;;;11.10;84.30;;;;;;5001960;28;20489;-65
2023/05/30 01:57:05;;;;;;;9.23;2.08;;;11.00;84.20;;;;;;4996239;28;20037;-66
2023/05/30 01:59:32;;;;;;;5.18;1.30;;;11.00;84.50;;;;;;4999653;28;20119;-65
2023/05/30 02:02:00;;;;;;;6.47;1.75;;;11.00;84.70;;;;;;5019269;28;20021;-65
2023/05/30 02:04:26;;;;;;;2.10;1.20;;;11.00;85.00;;;;;;5000088;28;20030;-65
2023/05/30 02:06:51;;;;;;;4.22;1.20;;;11.00;85.30;;;;;;5017051;28;20495;-65
2023/05/30 02:09:17;;;;;;;4.03;1.33;;;10.90;85.40;;;;;;4994987;28;20037;-65
2023/05/30 02:11:43;;;;;;;4.25;1.52;;;10.90;85.70;;;;;;5018390;28;20625;-66
2023/05/30 02:14:09;;;;;;;4.35;1.42;;;10.90;85.70;;;;;;5019720;28;20029;-65
2023/05/30 02:16:34;;;;;;;3.83;1.50;;;10.80;86.10;;;;;;5019308;28;20037;-65
2023/05/30 02:19:00;;;;;;;5.28;1.40;;;10.90;86.20;;;;;;5002627;28;20021;-65
2023/05/30 02:21:26;;;;;;;3.65;1.35;;;10.80;86.40;;;;;;5014711;28;20025;-65
2023/05/30 02:23:53;;;;;;;4.88;1.50;;;10.80;86.70;;;;;;5014695;28;20030;-66
2023/05/30 02:26:18;;;;;;;4.25;1.50;;;10.80;86.80;;;;;;5016359;28;20060;-65
2023/05/30 02:28:44;;;;;;;2.50;1.17;;;10.70;87.10;;;;;;5019046;28;20064;-65
2023/05/30 02:31:10;;;;;;;4.90;1.02;;;10.70;87.60;;;;;;5015896;28;20057;-65
2023/05/30 02:33:38;;;;;;;4.72;1.42;;;10.70;88.00;;;;;;5004438;28;20030;-65
2023/05/30 02:36:05;;;;;;;4.15;1.70;;;10.60;88.20;;;;;;5011678;28;20332;-65
2023/05/30 02:38:31;;;;;;;3.30;1.60;;;10.60;88.10;;;;;;5001345;28;20034;-65
2023/05/30 02:40:57;;;;;;;3.38;1.50;;;10.60;88.10;;;;;;5019604;28;20083;-65
2023/05/30 02:43:24;;;;;;;5.50;1.90;;;10.50;87.90;;;;;;5015763;28;20109;-65
2023/05/30 02:45:50;;;;;;;8.00;2.50;;;10.40;88.30;;;;;;4997337;28;20107;-65
2023/05/30 02:48:18;;;;;;;5.78;2.13;;;10.40;89.10;;;;;;4993748;28;20184;-65
2023/05/30 02:50:44;;;;;;;5.70;2.08;;;10.40;89.70;;;;;;5002734;28;20136;-64
2023/05/30 02:53:16;;;;;;;5.35;2.08;;;10.30;90.10;;;;;;5000201;28;20029;-64
2023/05/30 02:55:42;;;;;;;3.47;2.03;;;10.30;90.20;;;;;;5013757;28;20119;-65
2023/05/30 02:58:26;;;;;;;7.50;2.63;;;10.30;90.30;;;;;;5014381;28;20041;-65
2023/05/30 03:01:18;;;;;;;6.20;2.33;;;10.20;90.40;;;;;;4986394;28;20033;-65
2023/05/30 03:03:44;;;;;;;5.57;1.90;;;10.20;90.50;;;;;;5001653;28;20036;-65
2023/05/30 03:06:35;;;;;;;7.68;2.20;;;10.20;90.70;;;;;;4997778;28;20033;-65
2023/05/30 03:09:15;;;;;;;6.13;2.05;;;10.20;91.00;;;;;;4999498;28;20033;-65
2023/05/30 03:11:42;;;;;;;5.88;2.10;;;10.20;91.50;;;;;;5017082;28;20113;-65
2023/05/30 03:14:08;;;;;;;10.20;2.22;;;10.30;91.70;;;;;;4998137;28;20033;-65
2023/05/30 03:16:34;;;;;;;4.32;1.80;;;10.20;92.20;;;;;;5024916;28;20037;-65
2023/05/30 03:19:02;;;;;;;5.88;1.83;;;10.20;92.90;;;;;;5003015;28;20501;-65
2023/05/30 03:21:29;;;;;;;5.38;1.80;;;10.30;93.30;;;;;;5001081;28;20029;-65
2023/05/30 03:23:55;;;;;;;7.72;2.28;;;10.30;93.40;;;;;;4999579;28;20753;-65
2023/05/30 03:26:25;;;;;;;4.35;2.42;;;10.40;93.80;;;;;;4997901;28;20033;-65
2023/05/30 03:28:50;;;;;;;4.95;2.00;;;10.40;93.90;;;;;;5020814;28;20044;-65
2023/05/30 03:31:27;;;;;;;6.13;2.20;;;10.40;93.90;;;;;;5006594;28;20026;-65
2023/05/30 03:33:53;;;;;;;4.97;2.00;;;10.50;94.00;;;;;;5020021;28;20764;-65
2023/05/30 03:36:20;;;;;;;7.13;1.55;;;10.50;93.90;;;;;;4999706;28;20076;-65
2023/05/30 03:38:47;;;;;;;4.38;1.55;;;10.50;93.80;;;;;;4999200;28;20433;-65
2023/05/30 03:41:13;;;;;;;5.07;2.25;;;10.50;93.80;;;;;;5000267;28;20079;-65
2023/05/30 03:43:39;;;;;;;3.22;1.70;;;10.50;93.90;;;;;;5022875;28;20045;-65
2023/05/30 03:46:04;;;;;;;8.23;1.70;;;10.50;94.20;;;;;;5002777;28;20029;-65
2023/05/30 03:48:30;;;;;;;2.85;1.40;;;10.60;94.30;;;;;;5000643;28;20129;-65
2023/05/30 03:50:56;;;;;;;1.90;1.17;;;10.60;94.50;;;;;;5005118;28;20025;-64
2023/05/30 03:53:22;;;;;;;3.75;1.40;;;10.60;94.80;;;;;;4997036;28;20091;-65
2023/05/30 03:55:48;;;;;;;4.97;1.80;;;10.60;94.90;;;;;;5021026;28;20029;-65
2023/05/30 03:58:13;;;;;;;3.63;1.40;;;10.50;94.80;;;;;;5019262;28;20468;-65
2023/05/30 04:00:39;;;;;;;5.47;1.60;;;10.50;94.30;;;;;;5020307;28;20064;-65
2023/05/30 04:03:05;;;;;;;4.50;1.70;;;10.50;94.10;;;;;;5015817;28;20564;-65
2023/05/30 04:05:31;;;;;;;7.70;2.50;;;10.60;93.90;;;;;;4998723;28;20018;-65
2023/05/30 04:07:57;;;;;;;4.50;1.40;;;10.60;93.80;;;;;;5021844;28;20044;-65
2023/05/30 04:10:23;;;;;;;1.90;1.40;;;10.60;94.00;;;;;;5002551;28;20041;-65
2023/05/30 04:12:51;;;;;;;4.50;1.83;;;10.60;94.30;;;;;;5017518;28;20064;-65
2023/05/30 04:15:17;;;;;;;3.53;1.63;;;10.60;94.80;;;;;;5016144;28;20033;-66
2023/05/30 04:17:43;;;;;;;4.00;1.60;;;10.60;95.10;;;;;;4998496;28;20029;-65
2023/05/30 04:20:09;;;;;;;6.03;2.10;;;10.60;95.20;;;;;;5010619;28;20552;-65
2023/05/30 04:22:37;;;;;;;2.92;1.50;;;10.70;95.30;;;;;;5022307;28;20043;-65
2023/05/30 04:25:03;;;;;;;5.45;2.08;;;10.70;95.60;;;;;;5018975;28;20021;-65
2023/05/30 04:27:31;;;;;;;5.65;1.75;;;10.70;95.80;;;;;;5017390;28;20516;-65
2023/05/30 04:29:57;;;;;;;4.78;1.90;;;10.70;95.90;;;;;;4997027;28;20091;-64
2023/05/30 04:32:22;;;;;;;7.05;1.73;;;10.80;96.00;;;;;;5017825;28;20033;-64
2023/05/30 04:34:48;;;;;;;7.45;1.95;;;10.80;96.10;;;;;;5021919;28;20037;-66
2023/05/30 04:37:18;;;;;;;4.93;2.35;;;10.90;96.10;;;;;;5000518;28;20037;-65
2023/05/30 04:39:44;;;;;;;8.38;1.90;;;10.90;96.20;;;;;;5017539;28;20025;-65
2023/05/30 04:42:10;;;;;;;4.78;1.88;;;10.90;96.30;;;;;;4995992;28;20026;-65
2023/05/30 04:44:39;;;;;;;8.32;2.00;;;11.00;96.40;;;;;;5015728;28;20797;-65
2023/05/30 04:47:10;;;;;;;2.40;1.63;;;11.00;96.50;;;;;;5003443;28;20033;-65
2023/05/30 04:49:39;;;;;;;4.85;1.90;;;11.10;96.60;;;;;;5016719;28;20033;-65
2023/05/30 04:52:07;;;;;;;5.85;2.05;;;11.20;96.60;;;;;;4981749;28;20096;-65
2023/05/30 04:54:33;;;;;;;3.80;1.75;;;11.20;96.60;;;;;;4998779;28;20140;-65
2023/05/30 04:57:02;;;;;;;3.58;2.33;;;11.20;96.90;;;;;;4995150;28;20030;-65
2023/05/30 04:59:28;;;;;;;6.25;2.00;;;11.30;96.70;;;;;;5002724;28;20108;-65
2023/05/30 05:01:54;;;;;;;5.78;2.13;;;11.30;96.70;;;;;;5020331;28;20141;-66
2023/05/30 05:04:19;;;;;;;5.55;2.10;;;11.40;96.80;;;;;;5016166;28;20025;-65
2023/05/30 05:06:45;;;;;;;4.43;1.98;;;11.50;96.80;;;;;;5017044;28;20029;-65
2023/05/30 05:09:11;;;;;;;5.35;2.30;;;11.50;96.70;;;;;;4994104;28;20144;-65
2023/05/30 05:11:37;;;;;;;4.05;1.95;;;11.60;96.40;;;;;;5022054;28;20045;-65
2023/05/30 05:14:03;;;;;;;3.90;1.50;;;11.60;96.40;;;;;;5021915;28;20044;-66
2023/05/30 05:16:28;;;;;;;5.95;2.05;;;11.70;96.20;;;;;;5018409;28;20037;-65
2023/05/30 05:18:54;;;;;;;3.47;1.60;;;11.80;95.90;;;;;;5016409;28;20037;-65
2023/05/30 05:21:20;;;;;;;4.00;1.55;;;12.00;95.50;;;;;;5013942;28;20089;-65
2023/05/30 05:23:46;;;;;;;7.00;2.50;;;12.10;95.20;;;;;;5020808;28;20037;-65
2023/05/30 05:26:12;;;;;;;5.90;1.95;;;12.20;94.70;;;;;;5022586;28;20102;-65
2023/05/30 05:28:38;;;;;;;3.78;1.80;;;12.40;94.30;;;;;;5020385;28;20045;-66
2023/05/30 05:31:04;;;;;;;3.80;1.83;;;12.50;94.10;;;;;;5015754;28;20033;-64
2023/05/30 05:33:29;;;;;;;6.18;1.83;;;12.60;94.10;;;;;;5015238;28;20396;-63
2023/05/30 05:35:55;;;;;;;5.43;1.70;;;12.60;94.10;;;;;;5019105;28;20084;-63
2023/05/30 05:38:21;;;;;;;4.85;1.67;;;12.60;94.20;;;;;;5020766;28;20033;-63
2023/05/30 05:40:47;;;;;;;1.92;1.50;;;12.70;94.30;;;;;;5020219;28;20033;-64
2023/05/30 05:43:12;;;;;;;4.53;1.88;;;12.80;94.60;;;;;;5015681;28;20028;-63
2023/05/30 05:45:38;;;;;;;4.43;1.80;;;12.80;94.40;;;;;;5016128;28;20051;-64
2023/05/30 05:48:04;;;;;;;4.00;1.50;;;13.00;94.30;;;;;;5010450;28;20125;-63
2023/05/30 05:50:30;;;;;;;5.10;1.95;;;13.10;94.10;;;;;;5020031;28;20033;-63
2023/05/30 05:52:56;;;;;;;4.50;1.67;;;13.30;94.10;;;;;;5016762;28;20025;-63
2023/05/30 05:55:22;;;;;;;2.92;1.50;;;13.60;93.90;;;;;;5015424;28;20022;-65
2023/05/30 05:57:48;;;;;;;3.60;1.63;;;13.80;93.40;;;;;;5014537;28;20033;-64
2023/05/30 06:00:15;;;;;;;4.13;1.65;;;13.90;92.60;;;;;;5011814;28;20087;-64
2023/05/30 06:02:41;;;;;;;3.85;1.50;;;14.10;91.90;;;;;;5019526;28;20056;-63
2023/05/30 06:05:07;;;;;;;4.85;1.88;;;14.30;91.80;;;;;;5016691;28;20601;-63
2023/05/30 06:07:34;;;;;;;2.97;1.30;;;14.50;91.10;;;;;;5017444;28;20076;-63
2023/05/30 06:10:00;;;;;;;3.70;1.73;;;14.60;90.80;;;;;;5014835;28;20091;-63
2023/05/30 06:12:25;;;;;;;2.10;1.33;;;14.80;90.00;;;;;;5017794;28;20041;-63
2023/05/30 06:14:51;;;;;;;8.00;1.90;;;15.00;89.20;;;;;;5018691;28;20033;-63
2023/05/30 06:17:17;;;;;;;3.85;1.42;;;15.20;89.10;;;;;;5019345;28;20547;-64
2023/05/30 06:19:43;;;;;;;6.45;1.77;;;15.40;89.00;;;;;;5016815;28;20043;-64
2023/05/30 06:22:08;;;;;;;4.32;1.63;;;15.60;87.60;;;;;;5016945;28;20145;-63
2023/05/30 06:24:34;;;;;;;6.00;1.38;;;15.80;86.70;;;;;;5018478;28;20025;-64
2023/05/30 06:27:00;;;;;;;7.43;2.22;;;15.90;86.10;;;;;;5021479;28;20567;-64
2023/05/30 06:29:27;;;;;;;5.00;1.50;;;16.10;84.80;;;;;;5022415;28;20061;-64
2023/05/30 06:31:54;;;;;;;5.10;1.60;;;16.30;83.70;;;;;;5022046;28;20033;-64
2023/05/30 06:34:19;;;;;;;3.22;1.52;;;16.40;83.70;;;;;;5018138;28;20104;-64
2023/05/30 06:36:45;;;;;;;6.97;1.70;;;16.50;83.30;;;;;;5019746;28;20075;-64
2023/05/30 06:39:15;;;;;;;7.45;1.77;;;16.50;83.60;;;;;;5015297;28;20030;-64
2023/05/30 06:41:45;;;;;;;9.80;2.17;;;16.50;84.50;;;;;;5024777;28;20076;-65
2023/05/30 06:44:11;;;;;;;8.23;2.00;;;16.40;84.20;;;;;;5021713;28;20481;-65
2023/05/30 06:46:37;;;;;;;7.38;1.95;;;16.50;84.70;;;;;;5021689;28;20037;-66
2023/05/30 06:49:03;;;;;;;9.73;1.73;;;16.50;84.20;;;;;;5022335;28;20485;-65
2023/05/30 06:51:30;;;;;;;10.18;2.47;;;16.50;84.10;;;;;;5018426;28;20406;-64
2023/05/30 06:53:57;;;;;;;8.27;2.30;;;16.60;84.70;;;;;;5003187;28;20025;-64
2023/05/30 06:56:23;;;;;;;5.13;1.88;;;16.60;83.70;;;;;;5022219;28;20496;-65
2023/05/30 06:58:49;;;;;;;6.78;2.30;;;16.70;82.90;;;;;;5021100;28;20053;-65
2023/05/30 07:01:15;;;;;;;8.93;2.58;;;16.80;83.00;;;;;;5017239;28;20041;-64
2023/05/30 07:03:42;;;;;;;9.82;2.17;;;16.80;82.80;;;;;;5019163;28;20041;-65
2023/05/30 07:06:08;;;;;;;8.00;2.30;;;16.90;82.30;;;;;;5021190;28;20397;-64
2023/05/30 07:08:33;;;;;;;7.82;2.58;;;16.90;82.00;;;;;;5017026;28;20037;-64
2023/05/30 07:10:59;;;;;;;8.40;2.78;;;16.90;81.80;;;;;;5021121;28;20163;-64
2023/05/30 07:13:25;;;;;;;9.80;2.45;;;16.90;82.30;;;;;;5019112;28;20037;-64
2023/05/30 07:15:51;;;;;;;8.98;2.88;;;17.00;81.90;;;;;;5018047;28;20516;-65
2023/05/30 07:18:17;;;;;;;7.20;2.50;;;17.10;80.30;;;;;;5018692;28;20148;-65
2023/05/30 07:20:43;;;;;;;7.65;2.67;;;17.10;78.80;;;;;;5023561;28;20041;-65
2023/05/30 07:23:09;;;;;;;8.38;2.55;;;17.20;79.20;;;;;;5019918;28;20036;-65
2023/05/30 07:25:35;;;;;;;6.60;3.13;;;17.20;79.60;;;;;;5019849;28;20025;-64
2023/05/30 07:28:00;;;;;;;8.05;2.40;;;17.30;79.60;;;;;;5019017;28;20080;-65
2023/05/30 07:30:26;;;;;;;8.05;2.45;;;17.40;79.50;;;;;;5015649;28;20128;-65
2023/05/30 07:32:52;;;;;;;7.97;2.58;;;17.40;75.70;;;;;;5022970;28;20144;-65
2023/05/30 07:35:18;;;;;;;11.98;2.85;;;17.50;76.40;;;;;;5020796;28;20091;-65
2023/05/30 07:37:44;;;;;;;8.27;2.38;;;17.60;76.50;;;;;;5019963;28;20038;-64
2023/05/30 07:40:10;;;;;;;5.78;2.10;;;17.60;74.60;;;;;;5015328;28;20031;-65
2023/05/30 07:42:38;;;;;;;7.63;2.40;;;17.70;74.60;;;;;;5021419;28;20030;-65
2023/05/30 07:45:05;;;;;;;11.50;2.22;;;17.80;73.70;;;;;;5020085;28;20033;-65
2023/05/30 07:47:31;;;;;;;7.38;1.88;;;17.90;73.70;;;;;;5020967;28;20087;-65
2023/05/30 07:49:56;;;;;;;10.45;2.13;;;18.00;74.70;;;;;;5019759;28;20481;-64
2023/05/30 07:52:22;;;;;;;3.95;1.88;;;18.00;74.50;;;;;;5017126;28;20651;-65
2023/05/30 07:54:48;;;;;;;6.78;2.28;;;18.10;73.80;;;;;;5016172;28;20516;-64
2023/05/30 07:57:14;;;;;;;6.43;2.25;;;18.20;72.70;;;;;;5020798;28;20048;-64
2023/05/30 07:59:41;;;;;;;4.97;2.25;;;18.20;71.80;;;;;;5021685;28;20045;-64
2023/05/30 08:02:07;;;;;;;7.30;2.20;;;18.30;70.80;;;;;;5019736;28;20104;-64
2023/05/30 08:04:33;;;;;;;7.35;1.77;;;18.40;70.70;;;;;;5019590;28;20136;-64
2023/05/30 08:06:58;;;;;;;7.70;1.83;;;18.40;69.40;;;;;;5016221;28;20034;-64
2023/05/30 08:09:24;;;;;;;4.85;2.03;;;18.40;70.20;;;;;;5018425;28;20532;-65
2023/05/30 08:11:50;;;;;;;9.60;1.85;;;18.40;68.00;;;;;;5016697;28;20076;-64
2023/05/30 08:14:16;;;;;;;3.75;1.60;;;18.50;67.60;;;;;;5019437;28;20059;-64
2023/05/30 08:16:42;;;;;;;6.43;1.90;;;18.50;68.60;;;;;;5019632;28;20485;-65
2023/05/30 08:19:08;;;;;;;6.68;1.83;;;18.60;67.50;;;;;;5014068;28;20034;-64
2023/05/30 08:21:36;;;;;;;6.93;1.83;;;18.70;67.10;;;;;;5016152;28;20040;-65
2023/05/30 08:24:02;;;;;;;8.70;1.60;;;18.70;65.50;;;;;;4987432;28;20040;-65
2023/05/30 08:26:31;;;;;;;5.88;1.75;;;18.80;64.30;;;;;;5019023;28;20313;-64
2023/05/30 08:28:58;;;;;;;10.13;1.95;;;18.90;63.10;;;;;;5018455;28;20588;-64
2023/05/30 08:31:24;;;;;;;5.95;2.00;;;18.90;62.50;;;;;;5016048;28;20494;-64
2023/05/30 08:33:50;;;;;;;4.78;2.00;;;18.90;61.70;;;;;;5013925;28;20087;-64
2023/05/30 08:36:16;;;;;;;5.53;1.50;;;19.00;61.40;;;;;;5019266;28;20033;-62
2023/05/30 08:38:42;;;;;;;9.90;2.17;;;19.10;62.50;;;;;;5020476;28;20621;-62
2023/05/30 08:41:07;;;;;;;6.55;2.15;;;19.00;63.50;;;;;;5017680;28;20030;-63
2023/05/30 08:43:33;;;;;;;11.70;2.03;;;19.10;63.10;;;;;;5016481;28;20552;-64
2023/05/30 08:46:00;;;;;;;5.40;1.58;;;19.30;62.50;;;;;;5016598;28;20034;-63
2023/05/30 08:48:31;;;;;;;4.75;1.60;;;19.30;60.00;;;;;;5017345;28;20028;-62
2023/05/30 08:50:57;;;;;;;9.20;2.03;;;19.40;61.90;;;;;;5021110;28;20033;-63
2023/05/30 08:53:34;;;;;;;5.72;1.30;;;19.40;60.60;;;;;;5017463;28;20037;-65
2023/05/30 08:56:10;;;;;;;3.28;1.52;;;19.40;60.90;;;;;;5015674;28;20025;-63
2023/05/30 08:58:47;;;;;;;9.18;1.75;;;19.40;59.00;;;;;;5017162;28;20044;-65
2023/05/30 09:01:13;;;;;;;7.55;1.83;;;19.60;60.40;;;;;;5018640;28;20093;-64
2023/05/30 09:03:45;;;;;;;3.85;1.50;;;19.70;61.90;;;;;;5021262;28;20025;-64
2023/05/30 09:06:14;;;;;;;7.00;1.90;;;19.90;60.00;;;;;;5017828;28;20485;-64
2023/05/30 09:08:44;;;;;;;11.27;2.67;;;20.00;58.60;;;;;;5017522;28;20048;-63
2023/05/30 09:11:10;;;;;;;9.18;2.58;;;20.20;59.10;;;;;;5012148;28;20045;-63
2023/05/30 09:13:36;;;;;;;10.35;4.50;;;20.20;59.40;;;;;;5018989;28;20029;-63
2023/05/30 09:16:02;;;;;;;5.40;2.00;;;20.30;59.10;;;;;;5021200;28;20025;-64
2023/05/30 09:18:34;;;;;;;7.95;2.72;;;20.40;57.30;;;;;;5017690;28;20478;-63
2023/05/30 09:21:02;;;;;;;4.30;1.52;;;20.50;57.30;;;;;;5015633;28;20029;-63
2023/05/30 09:23:29;;;;;;;8.30;2.65;;;20.50;54.40;;;;;;5008622;28;20118;-62
2023/05/30 09:25:59;;;;;;;8.77;2.28;;;20.50;57.20;;;;;;4994225;28;20030;-61
2023/05/30 09:28:27;;;;;;;6.90;2.00;;;20.70;56.30;;;;;;5015844;28;20037;-62
2023/05/30 09:31:00;;;;;;;5.82;1.98;;;20.70;55.50;;;;;;5015139;28;20037;-62
2023/05/30 09:33:50;;;;;;;7.97;2.17;;;20.70;56.60;;;;;;5014354;28;20101;-62
2023/05/30 09:36:24;;;;;;;6.40;1.65;;;20.80;54.60;;;;;;5011842;28;20048;-62
2023/05/30 09:39:04;;;;;;;11.55;2.50;;;21.00;56.00;;;;;;5016362;28;20041;-63
2023/05/30 09:41:31;;;;;;;18.52;2.63;;;21.10;55.30;;;;;;5017855;28;20041;-63
2023/05/30 09:43:58;;;;;;;8.70;2.35;;;21.20;55.10;;;;;;5016765;28;20061;-63
2023/05/30 09:46:30;;;;;;;6.25;1.98;;;21.40;54.10;;;;;;5014427;28;20025;-63
2023/05/30 09:48:57;;;;;;;6.95;1.77;;;21.40;51.90;;;;;;5014092;28;20551;-63
2023/05/30 09:51:29;;;;;;;8.80;2.30;;;21.40;53.80;;;;;;5020471;28;20489;-63
2023/05/30 09:54:03;;;;;;;9.65;1.98;;;21.40;56.00;;;;;;5019369;28;20057;-63
2023/05/30 09:56:33;;;;;;;8.82;1.90;;;21.50;53.30;;;;;;5016390;28;20083;-62
2023/05/30 09:59:17;;;;;;;7.30;2.22;;;21.60;52.10;;;;;;5014418;28;20550;-64
2023/05/30 10:01:47;;;;;;;6.75;2.00;;;21.70;54.10;;;;;;5009889;28;20108;-64
2023/05/30 10:04:16;;;;;;;12.07;3.58;;;22.20;53.50;;;;;;5012812;28;20025;-63
2023/05/30 10:06:48;;;;;;;7.60;2.20;;;22.50;52.00;;;;;;5018435;28;20166;-64
2023/05/30 10:09:14;;;;;;;7.65;2.25;;;22.50;51.80;;;;;;5017305;28;20037;-63
2023/05/30 10:11:42;;;;;;;9.57;2.40;;;22.60;51.80;;;;;;5020123;28;20029;-62
2023/05/30 10:14:09;;;;;;;8.98;1.85;;;22.50;52.20;;;;;;5018908;28;20041;-63
2023/05/30 10:16:40;;;;;;;5.80;2.25;;;22.50;50.20;;;;;;5018258;28;20022;-62
2023/05/30 10:19:11;;;;;;;9.07;2.10;;;22.20;53.30;;;;;;5018087;28;20025;-62
2023/05/30 10:21:38;;;;;;;9.63;2.00;;;22.20;53.10;;;;;;5017944;28;20032;-62
2023/05/30 10:24:09;;;;;;;5.95;1.60;;;22.10;52.80;;;;;;5019771;28;20034;-63
2023/05/30 10:26:42;;;;;;;6.22;1.85;;;22.30;51.60;;;;;;5019103;28;20033;-63
2023/05/30 10:29:11;;;;;;;8.50;2.35;;;22.50;51.80;;;;;;5014601;28;20030;-63
2023/05/30 10:31:38;;;;;;;8.88;3.30;;;22.70;51.80;;;;;;5022142;28;20041;-62
2023/05/30 10:34:06;;;;;;;6.55;2.22;;;22.60;52.10;;;;;;5022220;28;20026;-63
2023/05/30 10:36:34;;;;;;;8.05;2.08;;;22.60;50.70;;;;;;5021915;28;20014;-62
2023/05/30 10:39:09;;;;;;;4.65;2.15;;;22.60;51.30;;;;;;5000509;28;20033;-61
2023/05/30 10:41:51;;;;;;;4.50;1.80;;;22.50;53.00;;;;;;5018176;28;20457;-62
2023/05/30 10:44:27;;;;;;;6.20;2.13;;;22.60;51.40;;;;;;5022712;28;20033;-62
2023/05/30 10:47:08;;;;;;;7.70;1.52;;;22.80;50.40;;;;;;5022899;28;20040;-62
2023/05/30 10:49:36;;;;;;;5.70;1.58;;;22.80;50.60;;;;;;5018730;28;20558;-63
2023/05/30 10:52:05;;;;;;;4.38;1.50;;;22.90;50.10;;;;;;5021509;28;20056;-63
2023/05/30 10:54:35;;;;;;;3.95;1.48;;;23.20;48.80;;;;;;5007818;28;20394;-62
2023/05/30 10:57:24;;;;;;;6.55;1.80;;;23.50;47.70;;;;;;5020082;28;20045;-62
2023/05/30 10:59:50;;;;;;;7.78;2.00;;;23.60;48.20;;;;;;5017769;28;20025;-62
2023/05/30 11:02:20;;;;;;;12.13;3.53;;;23.60;49.20;;;;;;5019561;28;20026;-62
2023/05/30 11:04:50;;;;;;;8.10;2.55;;;23.60;49.30;;;;;;5018963;28;20505;-62
2023/05/30 11:07:17;;;;;;;5.50;2.78;;;23.50;49.20;;;;;;4998016;28;20203;-63
2023/05/30 11:10:04;;;;;;;6.88;2.03;;;23.40;48.30;;;;;;5023616;28;20033;-62
2023/05/30 11:12:30;;;;;;;6.85;2.05;;;23.20;50.10;;;;;;5022260;28;20112;-62
2023/05/30 11:14:58;;;;;;;8.02;2.05;;;23.20;49.30;;;;;;5019643;28;20116;-64
2023/05/30 11:17:33;;;;;;;8.27;2.00;;;23.00;50.30;;;;;;5017890;28;20030;-63
2023/05/30 11:20:17;;;;;;;4.90;2.75;;;22.90;50.60;;;;;;4996743;28;20034;-63
2023/05/30 11:23:03;;;;;;;10.10;2.42;;;22.80;50.50;;;;;;5021698;28;20797;-63
2023/05/30 11:25:31;;;;;;;16.90;8.30;;;22.80;50.50;;;;;;5008169;28;20056;-63
2023/05/30 11:28:14;;;;;;;8.32;3.20;;;22.80;51.80;;;;;;5019556;28;20109;-63
2023/05/30 11:30:47;;;;;;;10.38;3.67;;;22.80;51.50;;;;;;5018443;28;20443;-63
2023/05/30 11:33:14;;;;;;;12.27;5.93;;;22.90;50.40;;;;;;5017646;28;20034;-63
2023/05/30 11:35:48;;;;;;;9.38;3.35;;;22.90;51.30;;;;;;5023292;28;20025;-63
2023/05/30 11:38:21;;;;;;;9.40;4.53;;;23.10;51.00;;;;;;5019755;28;20981;-62
2023/05/30 11:40:48;;;;;;;10.23;4.03;;;23.10;51.50;;;;;;5020220;28;20104;-63
2023/05/30 11:43:17;;;;;;;7.78;3.08;;;23.00;49.70;;;;;;5015332;28;20068;-62
2023/05/30 11:45:49;;;;;;;7.40;3.13;;;23.00;50.50;;;;;;4999246;28;20399;-62
2023/05/30 11:48:16;;;;;;;8.18;2.58;;;23.10;48.90;;;;;;5022607;28;20048;-63
2023/05/30 11:50:43;;;;;;;6.65;1.85;;;23.00;50.10;;;;;;5022880;28;20056;-63
2023/05/30 11:53:18;;;;;;;7.75;2.22;;;22.90;50.60;;;;;;5017469;28;20033;-62
2023/05/30 11:55:45;;;;;;;5.03;2.00;;;22.90;50.20;;;;;;5017697;28;20037;-63
2023/05/30 11:58:11;;;;;;;7.20;2.00;;;23.00;50.40;;;;;;5012621;28;20084;-63
2023/05/30 12:00:41;;;;;;;5.28;2.35;;;23.00;50.10;;;;;;5024508;28;20049;-63
2023/05/30 12:03:09;;;;;;;4.50;1.60;;;23.10;51.00;;;;;;5020071;28;20025;-63
2023/05/30 12:05:35;;;;;;;9.18;1.85;;;23.10;49.80;;;;;;5017311;28;20891;-63
2023/05/30 12:08:05;;;;;;;5.55;2.10;;;23.20;49.80;;;;;;5016057;28;20108;-63
2023/05/30 12:10:31;;;;;;;4.65;1.45;;;23.30;49.70;;;;;;5016737;28;20033;-63
2023/05/30 12:12:58;;;;;;;6.00;1.80;;;23.30;49.40;;;;;;5013235;28;20038;-63
2023/05/30 12:15:24;;;;;;;5.30;1.73;;;23.10;50.00;;;;;;5020798;28;20107;-64
2023/05/30 12:17:53;;;;;;;5.10;2.00;;;23.10;49.60;;;;;;5020087;28;20884;-63
2023/05/30 12:20:21;;;;;;;3.60;1.77;;;23.10;49.90;;;;;;5016586;28;20854;-63
2023/05/30 12:22:47;;;;;;;5.07;2.17;;;23.10;49.40;;;;;;5015478;28;20029;-62
2023/05/30 12:25:14;;;;;;;4.13;1.95;;;23.20;49.20;;;;;;5016046;28;20065;-64
2023/05/30 12:27:44;;;;;;;4.22;1.75;;;23.30;47.60;;;;;;5006345;28;20064;-64
2023/05/30 12:30:14;;;;;;;6.97;1.85;;;23.30;49.00;;;;;;5009900;28;20033;-64
2023/05/30 12:32:40;;;;;;;5.15;2.25;;;23.10;47.80;;;;;;5012107;28;20021;-64
2023/05/30 12:35:07;;;;;;;5.13;1.95;;;22.90;50.10;;;;;;5013463;28;20969;-64
2023/05/30 12:37:32;;;;;;;5.95;2.00;;;23.00;49.30;;;;;;5020438;28;20036;-64
2023/05/30 12:40:00;;;;;;;7.05;1.83;;;23.00;49.80;;;;;;5019251;28;20485;-64
2023/05/30 12:42:28;;;;;;;7.63;1.60;;;23.00;51.60;;;;;;5016454;28;20025;-64
2023/05/30 12:44:55;;;;;;;6.13;1.50;;;23.30;50.00;;;;;;5016074;28;20358;-64
2023/05/30 12:47:22;;;;;;;4.15;1.35;;;23.50;49.40;;;;;;5013153;28;20577;-65
2023/05/30 12:49:48;;;;;;;8.90;1.98;;;23.60;48.70;;;;;;5019024;28;20061;-64
2023/05/30 12:52:17;;;;;;;4.38;1.60;;;23.60;47.80;;;;;;5019508;28;20033;-64